RKTN/TAE METAR and TAF weather

Enter ICAO airport designator
Station Type Date Time Source
RKTN METAR 2020/07/06 22:33 UTC NOAA

RKTN 062233Z 06SPECI


Station Type Date Time Source
RKTN Decoded METAR 2020/07/06 22:33 UTC NOAA

Taegu Ab, Korea, South (RKTN) 35-54N 128-39E 37M
Jul 06, 2020 - 06:33 PM EDT / 2020.07.06 2233 UTC
ob: RKTN 062233Z 06SPECI
cycle: 22

Station Type Date Time Source
RKTN TAF 2020/07/06 21:21 UTC NOAA

TAF
AMD TAF
AMD RKTN 062110Z 0621/0724 30006KT 9000 BKN020 TX31/0706Z TN21/0721Z
BECMG 0700/0701 9999 BKN030
TEMPO 0706/0712 9000 -RA

Example: see airport list